createdAt,value
2023-09-28T00:01:38.662Z,3.53
2023-09-28T00:04:08.440Z,3.97
2023-09-28T00:06:37.318Z,3.88
2023-09-28T00:09:05.106Z,4.60
2023-09-28T00:11:33.714Z,4.50
2023-09-28T00:14:02.618Z,4.00
2023-09-28T00:16:31.179Z,4.15
2023-09-28T00:18:58.631Z,4.47
2023-09-28T00:21:27.527Z,4.38
2023-09-28T00:23:55.662Z,4.13
2023-09-28T00:26:24.396Z,4.13
2023-09-28T00:28:52.244Z,3.72
2023-09-28T00:31:22.468Z,3.95
2023-09-28T00:33:49.844Z,4.35
2023-09-28T00:36:19.032Z,3.83
2023-09-28T00:38:48.669Z,4.20
2023-09-28T00:41:17.182Z,4.20
2023-09-28T00:43:45.782Z,4.18
2023-09-28T00:46:18.221Z,4.20
2023-09-28T00:48:59.761Z,3.67
2023-09-28T00:51:29.422Z,3.80
2023-09-28T00:53:58.623Z,3.67
2023-09-28T00:56:28.960Z,4.20
2023-09-28T00:58:57.798Z,4.15
2023-09-28T01:01:30.744Z,4.55
2023-09-28T01:04:06.544Z,3.90
2023-09-28T01:06:37.309Z,4.63
2023-09-28T01:09:08.361Z,4.50
2023-09-28T01:11:37.166Z,4.30
2023-09-28T01:14:05.755Z,4.18
2023-09-28T01:16:34.633Z,4.10
2023-09-28T01:19:03.958Z,4.50
2023-09-28T01:21:32.590Z,4.03
2023-09-28T01:24:01.412Z,4.07
2023-09-28T01:26:32.895Z,4.10
2023-09-28T01:29:00.426Z,4.45
2023-09-28T01:31:29.441Z,5.07
2023-09-28T01:33:57.494Z,4.40
2023-09-28T01:36:26.067Z,4.45
2023-09-28T01:39:03.564Z,4.68
2023-09-28T01:41:32.288Z,4.07
2023-09-28T01:43:59.667Z,4.32
2023-09-28T01:46:28.261Z,4.57
2023-09-28T01:48:55.906Z,4.32
2023-09-28T01:51:24.819Z,4.38
2023-09-28T01:53:52.455Z,4.65
2023-09-28T01:56:22.487Z,4.70
2023-09-28T01:58:50.749Z,4.32
2023-09-28T02:01:28.019Z,4.28
2023-09-28T02:03:55.647Z,4.28
2023-09-28T02:06:24.209Z,4.60
2023-09-28T02:08:51.774Z,4.30
2023-09-28T02:11:21.675Z,3.97
2023-09-28T02:13:50.309Z,4.45
2023-09-28T02:16:18.807Z,3.80
2023-09-28T02:18:47.696Z,4.18
2023-09-28T02:21:15.650Z,4.20
2023-09-28T02:23:44.233Z,4.00
2023-09-28T02:26:11.797Z,3.83
2023-09-28T02:28:41.655Z,3.80
2023-09-28T02:31:09.524Z,3.95
2023-09-28T02:33:38.068Z,3.70
2023-09-28T02:36:06.293Z,3.28
2023-09-28T02:38:34.883Z,3.70
2023-09-28T02:41:02.341Z,3.65
2023-09-28T02:43:30.794Z,3.67
2023-09-28T02:45:59.772Z,3.35
2023-09-28T02:48:28.530Z,3.55
2023-09-28T02:50:56.397Z,3.45
2023-09-28T02:53:25.331Z,2.95
2023-09-28T02:55:52.817Z,3.40
2023-09-28T02:58:23.226Z,3.42
2023-09-28T03:00:50.832Z,3.58
2023-09-28T03:03:20.627Z,3.53
2023-09-28T03:05:49.006Z,3.28
2023-09-28T03:08:16.537Z,3.60
2023-09-28T03:10:45.817Z,3.38
2023-09-28T03:13:13.731Z,3.20
2023-09-28T03:15:44.890Z,3.28
2023-09-28T03:18:13.969Z,3.00
2023-09-28T03:20:44.393Z,3.17
2023-09-28T03:23:12.912Z,3.17
2023-09-28T03:25:41.426Z,2.35
2023-09-28T03:28:08.952Z,3.03
2023-09-28T03:30:37.518Z,3.00
2023-09-28T03:33:05.472Z,3.20
2023-09-28T03:35:34.112Z,3.08
2023-09-28T03:38:05.785Z,3.53
2023-09-28T03:40:35.496Z,3.03
2023-09-28T03:43:04.172Z,3.00
2023-09-28T03:45:32.845Z,3.20
2023-09-28T03:48:01.215Z,2.90
2023-09-28T03:50:29.793Z,3.25
2023-09-28T03:52:58.331Z,2.78
2023-09-28T03:55:28.210Z,2.80
2023-09-28T03:57:56.770Z,3.08
2023-09-28T04:00:25.190Z,2.75
2023-09-28T04:02:55.975Z,2.75
2023-09-28T04:05:25.936Z,2.70
2023-09-28T04:07:54.982Z,3.33
2023-09-28T04:10:24.835Z,2.72
2023-09-28T04:13:13.261Z,3.03
2023-09-28T04:16:11.006Z,3.08
2023-09-28T04:18:39.613Z,2.95
2023-09-28T04:21:56.141Z,2.88
2023-09-28T04:24:24.760Z,2.85
2023-09-28T04:26:58.950Z,3.28
2023-09-28T04:29:29.044Z,2.70
2023-09-28T04:31:57.574Z,3.10
2023-09-28T04:34:26.012Z,2.90
2023-09-28T04:36:54.466Z,3.08
2023-09-28T04:39:25.187Z,3.20
2023-09-28T04:41:55.274Z,2.88
2023-09-28T04:44:24.662Z,3.38
2023-09-28T04:46:54.587Z,2.83
2023-09-28T04:49:23.084Z,2.95
2023-09-28T04:51:53.155Z,2.88
2023-09-28T04:54:21.713Z,2.60
2023-09-28T04:56:50.088Z,2.80
2023-09-28T04:59:18.436Z,2.90
2023-09-28T05:01:46.815Z,2.80
2023-09-28T05:04:17.484Z,2.92
2023-09-28T05:06:46.097Z,3.17
2023-09-28T05:09:14.552Z,2.88
2023-09-28T05:11:43.168Z,2.60
2023-09-28T05:14:11.410Z,2.92
2023-09-28T05:16:39.650Z,3.25
2023-09-28T05:19:07.804Z,2.95
2023-09-28T05:21:38.110Z,3.13
2023-09-28T05:24:08.224Z,3.05
2023-09-28T05:26:36.823Z,2.90
2023-09-28T05:29:05.327Z,2.72
2023-09-28T05:31:34.819Z,3.13
2023-09-28T05:34:04.410Z,3.35
2023-09-28T05:36:32.682Z,3.10
2023-09-28T05:39:04.168Z,3.08
2023-09-28T05:41:32.687Z,3.28
2023-09-28T05:44:01.035Z,3.08
2023-09-28T05:46:29.344Z,3.40
2023-09-28T05:48:57.791Z,3.20
2023-09-28T05:51:26.315Z,3.28
2023-09-28T05:53:54.959Z,3.38
2023-09-28T05:56:25.236Z,3.33
2023-09-28T05:58:53.803Z,2.97
2023-09-28T06:01:22.434Z,3.35
2023-09-28T06:03:51.055Z,3.28
2023-09-28T06:06:21.138Z,2.85
2023-09-28T06:08:49.381Z,3.05
2023-09-28T06:11:19.919Z,3.63
2023-09-28T06:14:04.797Z,3.30
2023-09-28T06:16:37.646Z,3.70
2023-09-28T06:19:06.666Z,3.42
2023-09-28T06:21:35.049Z,3.30
2023-09-28T06:24:04.346Z,3.40
2023-09-28T06:26:42.230Z,3.30
2023-09-28T06:29:13.393Z,3.42
2023-09-28T06:31:42.894Z,3.28
2023-09-28T06:34:11.253Z,3.25
2023-09-28T06:36:41.761Z,3.35
2023-09-28T06:39:11.203Z,2.97
2023-09-28T06:41:39.966Z,3.03
2023-09-28T06:44:09.890Z,3.35
2023-09-28T06:46:40.182Z,3.70
2023-09-28T06:49:09.887Z,3.30
2023-09-28T06:51:38.851Z,3.50
2023-09-28T06:54:11.671Z,3.35
2023-09-28T06:56:40.374Z,3.03
2023-09-28T06:59:09.034Z,3.17
2023-09-28T07:01:37.428Z,3.38
2023-09-28T07:04:08.045Z,3.55
2023-09-28T07:06:36.736Z,3.25
2023-09-28T07:09:06.899Z,3.38
2023-09-28T07:11:35.541Z,3.47
2023-09-28T07:14:03.874Z,4.13
2023-09-28T07:16:32.782Z,3.08
2023-09-28T07:19:04.738Z,3.45
2023-09-28T07:21:34.445Z,3.40
2023-09-28T07:24:18.095Z,3.33
2023-09-28T07:26:47.539Z,3.78
2023-09-28T07:29:15.884Z,3.92
2023-09-28T07:31:44.984Z,3.28
2023-09-28T07:34:13.636Z,3.75
2023-09-28T07:36:43.212Z,3.92
2023-09-28T07:39:12.690Z,3.63
2023-09-28T07:41:41.582Z,3.25
2023-09-28T07:44:10.241Z,3.67
2023-09-28T07:46:38.908Z,3.63
2023-09-28T07:49:08.192Z,3.72
2023-09-28T07:51:36.482Z,3.75
2023-09-28T07:54:06.435Z,3.60
2023-09-28T07:56:35.614Z,3.92
2023-09-28T07:59:03.996Z,4.15
2023-09-28T08:01:37.876Z,3.50
2023-09-28T08:04:07.264Z,3.80
2023-09-28T08:06:35.688Z,3.80
2023-09-28T08:09:05.583Z,3.47
2023-09-28T08:11:33.958Z,3.55
2023-09-28T08:14:02.340Z,4.10
2023-09-28T08:16:30.756Z,4.10
2023-09-28T08:18:59.605Z,3.88
2023-09-28T08:21:28.880Z,3.78
2023-09-28T08:23:57.478Z,3.85
2023-09-28T08:26:27.514Z,4.68
2023-09-28T08:28:55.715Z,3.67
2023-09-28T08:31:24.125Z,2.97
2023-09-28T08:33:53.672Z,3.67
2023-09-28T08:36:23.965Z,3.70
2023-09-28T08:38:52.282Z,3.78
2023-09-28T08:41:33.483Z,3.47
2023-09-28T08:44:06.868Z,3.53
2023-09-28T08:46:45.851Z,2.67
2023-09-28T08:49:15.754Z,3.50
2023-09-28T08:51:46.484Z,3.22
2023-09-28T08:54:15.922Z,2.63
2023-09-28T08:56:47.440Z,3.15
2023-09-28T08:59:18.697Z,2.70
2023-09-28T09:01:48.841Z,2.38
2023-09-28T09:04:17.228Z,2.85
2023-09-28T09:06:45.606Z,2.50
2023-09-28T09:09:16.487Z,2.88
2023-09-28T09:11:53.707Z,2.88
2023-09-28T09:14:23.093Z,2.83
2023-09-28T09:16:51.671Z,2.75
2023-09-28T09:19:22.906Z,2.90
2023-09-28T09:21:52.313Z,2.80
2023-09-28T09:24:20.667Z,3.00
2023-09-28T09:26:53.873Z,3.08
2023-09-28T09:29:23.669Z,2.95
2023-09-28T09:31:53.328Z,2.60
2023-09-28T09:34:25.597Z,2.90
2023-09-28T09:37:01.263Z,2.50
2023-09-28T09:39:51.748Z,2.53
2023-09-28T09:42:40.700Z,2.65
2023-09-28T09:45:24.868Z,2.55
2023-09-28T09:47:54.064Z,2.63
2023-09-28T09:50:23.329Z,2.30
2023-09-28T09:52:52.898Z,2.28
2023-09-28T09:55:21.418Z,2.42
2023-09-28T09:57:58.613Z,2.30
2023-09-28T10:00:32.484Z,2.13
2023-09-28T10:03:02.923Z,2.22
2023-09-28T10:05:35.343Z,2.08
2023-09-28T10:08:08.246Z,2.47
2023-09-28T10:10:38.748Z,2.22
2023-09-28T10:13:08.682Z,2.38
2023-09-28T10:15:37.381Z,1.98
2023-09-28T10:18:07.258Z,2.00
2023-09-28T10:20:36.009Z,1.85
2023-09-28T10:23:15.504Z,2.10
2023-09-28T10:25:59.361Z,2.25
2023-09-28T10:28:29.192Z,2.03
2023-09-28T10:31:22.530Z,2.13
2023-09-28T10:34:17.259Z,2.30
2023-09-28T10:36:45.979Z,1.70
2023-09-28T10:39:17.152Z,2.53
2023-09-28T10:41:48.034Z,2.53
2023-09-28T10:44:20.882Z,2.47
2023-09-28T10:46:53.625Z,2.10
2023-09-28T10:49:27.265Z,2.60
2023-09-28T10:51:59.857Z,2.45
2023-09-28T10:54:28.838Z,2.58
2023-09-28T10:56:57.702Z,2.70
2023-09-28T10:59:27.514Z,2.40
2023-09-28T11:01:56.198Z,2.75
2023-09-28T11:04:34.534Z,2.80
2023-09-28T11:07:13.333Z,3.00
2023-09-28T11:09:42.392Z,3.20
2023-09-28T11:12:11.367Z,3.40
2023-09-28T11:14:45.010Z,3.03
2023-09-28T11:17:13.720Z,3.10
2023-09-28T11:19:42.507Z,3.75
2023-09-28T11:22:17.119Z,3.60
2023-09-28T11:24:47.000Z,3.47
2023-09-28T11:27:15.757Z,3.10
2023-09-28T11:29:45.850Z,2.90
2023-09-28T11:32:14.541Z,3.47
2023-09-28T11:34:44.027Z,3.20
2023-09-28T11:37:12.832Z,3.45
2023-09-28T11:39:42.969Z,3.35
2023-09-28T11:42:14.342Z,2.78
2023-09-28T11:44:46.272Z,3.20
2023-09-28T11:47:15.984Z,2.97
2023-09-28T11:49:46.158Z,3.00
2023-09-28T11:52:15.798Z,3.35
2023-09-28T11:54:46.364Z,3.35
2023-09-28T11:57:17.687Z,3.22
2023-09-28T11:59:47.836Z,3.53
2023-09-28T12:02:16.717Z,3.20
2023-09-28T12:04:45.633Z,3.33
2023-09-28T12:07:17.464Z,3.50
2023-09-28T12:10:03.430Z,3.28
2023-09-28T12:12:32.948Z,3.45
2023-09-28T12:15:07.290Z,3.83
2023-09-28T12:17:36.508Z,3.47
2023-09-28T12:20:07.906Z,3.35
2023-09-28T12:22:36.804Z,3.50
2023-09-28T12:25:11.636Z,3.38
2023-09-28T12:27:40.840Z,3.72
2023-09-28T12:30:13.953Z,3.75
2023-09-28T12:32:42.638Z,4.10
2023-09-28T12:35:14.206Z,5.22
2023-09-28T12:37:43.299Z,5.05
2023-09-28T12:40:13.388Z,4.65
2023-09-28T12:42:42.797Z,4.70
2023-09-28T12:45:13.516Z,4.65
2023-09-28T12:47:42.538Z,4.30
2023-09-28T12:50:13.407Z,5.00
2023-09-28T12:52:45.649Z,5.13
2023-09-28T12:55:15.948Z,5.65
2023-09-28T13:07:19.602Z,3.15
2023-09-28T13:09:48.009Z,3.50
2023-09-28T13:12:17.030Z,3.50
2023-09-28T13:14:47.052Z,3.35
2023-09-28T13:17:16.119Z,3.53
2023-09-28T13:19:45.301Z,3.75
2023-09-28T13:22:14.808Z,3.28
2023-09-28T13:24:46.293Z,4.47
2023-09-28T13:27:19.864Z,4.15
2023-09-28T13:29:53.298Z,4.20
2023-09-28T13:32:28.993Z,4.20
2023-09-28T13:34:57.382Z,3.55
2023-09-28T13:37:27.103Z,3.85
2023-09-28T13:39:56.893Z,3.20
2023-09-28T13:42:25.403Z,3.00
2023-09-28T13:44:53.853Z,3.05
2023-09-28T13:47:22.088Z,2.58
2023-09-28T13:49:50.978Z,3.13
2023-09-28T13:52:19.543Z,2.25
2023-09-28T13:54:48.230Z,2.15
2023-09-28T13:57:18.069Z,2.40
2023-09-28T13:59:46.750Z,2.20
2023-09-28T14:02:15.910Z,2.63
2023-09-28T14:04:45.813Z,2.58
2023-09-28T14:07:13.983Z,2.60
2023-09-28T14:09:42.845Z,2.70
2023-09-28T14:25:57.535Z,3.35
2023-09-28T14:28:30.416Z,3.65
2023-09-28T14:30:58.948Z,3.83
2023-09-28T14:33:28.816Z,4.60
2023-09-28T14:35:57.359Z,4.05
2023-09-28T14:38:26.464Z,3.92
2023-09-28T14:40:56.071Z,3.92
2023-09-28T14:43:24.503Z,3.42
2023-09-28T14:45:52.736Z,3.42
2023-09-28T14:48:21.013Z,3.80
2023-09-28T14:50:52.097Z,3.65
2023-09-28T14:53:21.063Z,3.10
2023-09-28T14:55:52.528Z,3.13
2023-09-28T14:58:21.157Z,3.00
2023-09-28T15:00:52.178Z,2.60
2023-09-28T15:03:21.670Z,2.80
2023-09-28T15:05:52.450Z,2.40
2023-09-28T15:08:21.669Z,3.00
2023-09-28T15:10:50.906Z,2.20
2023-09-28T15:13:19.376Z,2.30
2023-09-28T15:15:47.895Z,2.40
2023-09-28T15:18:18.134Z,2.40
2023-09-28T15:25:40.232Z,2.47
2023-09-28T15:28:09.691Z,2.20
2023-09-28T15:33:27.366Z,2.08
2023-09-28T15:35:59.123Z,2.50
2023-09-28T15:38:28.225Z,2.38
2023-09-28T15:40:58.596Z,2.15
2023-09-28T15:43:28.043Z,2.22
2023-09-28T15:45:56.265Z,2.33
2023-09-28T15:48:24.503Z,2.47
2023-09-28T15:50:52.807Z,2.20
2023-09-28T15:53:21.172Z,2.10
2023-09-28T15:55:49.557Z,2.30
2023-09-28T15:58:19.145Z,2.50
2023-09-28T16:00:48.380Z,2.40
2023-09-28T16:03:16.800Z,1.83
2023-09-28T16:05:45.189Z,2.42
2023-09-28T16:08:13.552Z,2.10
2023-09-28T16:10:41.832Z,2.17
2023-09-28T16:13:10.446Z,2.10
2023-09-28T16:15:39.992Z,2.03
2023-09-28T16:18:08.586Z,2.33
2023-09-28T16:20:36.871Z,2.20
2023-09-28T16:23:05.726Z,2.33
2023-09-28T16:25:34.042Z,2.42
2023-09-28T16:28:02.686Z,2.15
2023-09-28T16:30:31.070Z,2.25
2023-09-28T16:33:00.795Z,2.25
2023-09-28T16:35:29.224Z,2.30
2023-09-28T16:37:58.752Z,1.90
2023-09-28T16:40:27.349Z,2.03
2023-09-28T16:42:55.585Z,2.10
2023-09-28T16:45:24.549Z,2.15
2023-09-28T16:47:52.936Z,2.40
2023-09-28T16:50:22.758Z,2.17
2023-09-28T16:52:51.060Z,2.22
2023-09-28T16:55:19.308Z,2.20
2023-09-28T16:57:47.694Z,2.10
2023-09-28T17:00:16.271Z,2.10
2023-09-28T17:02:44.697Z,2.15
2023-09-28T17:05:13.630Z,2.17
2023-09-28T17:07:44.465Z,2.30
2023-09-28T17:10:12.855Z,2.38
2023-09-28T17:13:32.165Z,2.85
2023-09-28T17:16:07.903Z,2.92
2023-09-28T17:18:36.586Z,2.72
2023-09-28T17:21:05.265Z,2.63
2023-09-28T17:23:35.131Z,2.55
2023-09-28T17:26:05.528Z,3.03
2023-09-28T17:28:34.129Z,2.35
2023-09-28T17:31:07.907Z,2.65
2023-09-28T17:33:41.529Z,2.47
2023-09-28T17:36:13.248Z,2.80
2023-09-28T17:38:47.935Z,2.30
2023-09-28T17:41:22.085Z,2.30
2023-09-28T17:43:51.948Z,2.22
2023-09-28T17:46:20.961Z,1.98
2023-09-28T17:48:49.331Z,2.65
2023-09-28T17:51:18.616Z,2.30
2023-09-28T17:53:48.329Z,2.67
2023-09-28T18:00:08.615Z,2.70
2023-09-28T18:02:48.207Z,2.58
2023-09-28T18:05:16.963Z,2.95
2023-09-28T18:07:47.490Z,3.25
2023-09-28T18:10:22.973Z,2.92
2023-09-28T18:12:52.095Z,2.88
2023-09-28T18:15:25.814Z,2.83
2023-09-28T18:17:55.597Z,3.05
2023-09-28T18:20:24.079Z,3.17
2023-09-28T18:22:53.656Z,3.05
2023-09-28T18:26:14.066Z,2.70
2023-09-28T18:29:39.971Z,3.10
2023-09-28T18:32:08.248Z,3.17
2023-09-28T18:34:38.817Z,3.72
2023-09-28T18:37:20.853Z,3.45
2023-09-28T18:40:06.893Z,4.78
2023-09-28T18:42:39.992Z,4.43
2023-09-28T18:45:09.912Z,4.88
2023-09-28T18:47:38.296Z,4.80
2023-09-28T18:50:11.640Z,4.85
2023-09-28T18:52:41.725Z,4.88
2023-09-28T18:55:16.459Z,4.85
2023-09-28T18:57:47.396Z,4.50
2023-09-28T19:00:19.625Z,4.88
2023-09-28T19:02:48.007Z,5.32
2023-09-28T19:05:20.903Z,5.53
2023-09-28T19:07:50.202Z,5.10
2023-09-28T19:14:20.785Z,4.78
2023-09-28T19:20:12.201Z,4.82
2023-09-28T19:22:40.806Z,4.72
2023-09-28T19:25:14.999Z,5.80
2023-09-28T19:31:12.018Z,6.30
2023-09-28T19:33:43.601Z,5.97
2023-09-28T19:36:20.449Z,5.72
2023-09-28T19:38:54.518Z,5.22
2023-09-28T19:41:27.673Z,4.75
2023-09-28T19:43:56.537Z,5.00
2023-09-28T19:46:26.830Z,5.80
2023-09-28T19:48:55.200Z,5.07
2023-09-28T19:51:24.954Z,5.47
2023-09-28T19:54:13.726Z,5.30
2023-09-28T19:56:51.170Z,5.60
2023-09-28T19:59:22.344Z,5.25
2023-09-28T20:01:53.430Z,5.88
2023-09-28T20:04:21.814Z,6.20
2023-09-28T20:06:51.912Z,5.70
2023-09-28T20:09:26.245Z,6.00
2023-09-28T20:11:54.531Z,5.63
2023-09-28T20:14:27.218Z,6.10
2023-09-28T20:17:00.267Z,6.60
2023-09-28T20:19:28.446Z,7.20
2023-09-28T20:22:00.921Z,7.38
2023-09-28T20:24:34.781Z,6.10
2023-09-28T20:27:05.579Z,6.05
2023-09-28T20:29:33.848Z,6.10
2023-09-28T20:32:03.460Z,6.50
2023-09-28T20:34:31.879Z,5.75
2023-09-28T20:37:05.290Z,5.25
2023-09-28T20:39:41.055Z,5.78
2023-09-28T20:42:10.462Z,6.30
2023-09-28T20:44:39.042Z,6.10
2023-09-28T20:47:09.535Z,5.53
2023-09-28T20:49:37.904Z,5.47
2023-09-28T20:52:06.193Z,6.43
2023-09-28T20:54:35.936Z,5.10
2023-09-28T20:57:04.387Z,4.72
2023-09-28T20:59:32.677Z,4.95
2023-09-28T21:02:01.040Z,4.70
2023-09-28T21:04:30.698Z,4.38
2023-09-28T21:06:58.924Z,4.70
2023-09-28T21:09:29.439Z,4.75
2023-09-28T21:11:57.672Z,4.68
2023-09-28T21:14:25.931Z,5.13
2023-09-28T21:16:54.103Z,5.03
2023-09-28T21:19:22.453Z,4.68
2023-09-28T21:21:52.050Z,5.22
2023-09-28T21:24:20.700Z,5.05
2023-09-28T21:26:49.774Z,4.95
2023-09-28T21:29:18.026Z,4.95
2023-09-28T21:31:46.377Z,5.40
2023-09-28T21:34:14.734Z,5.32
2023-09-28T21:36:43.577Z,5.55
2023-09-28T21:39:13.581Z,5.03
2023-09-28T21:41:42.018Z,5.43
2023-09-28T21:44:10.260Z,5.55
2023-09-28T21:46:38.523Z,6.60
2023-09-28T21:49:06.749Z,6.10
2023-09-28T21:51:34.903Z,6.18
2023-09-28T21:54:03.102Z,5.90
2023-09-28T21:56:32.750Z,5.95
2023-09-28T21:59:01.222Z,5.95
2023-09-28T22:01:29.921Z,5.32
2023-09-28T22:03:58.251Z,5.95
2023-09-28T22:06:26.780Z,5.97
2023-09-28T22:08:55.367Z,6.05
2023-09-28T22:11:23.877Z,5.32
2023-09-28T22:13:53.643Z,5.78
2023-09-28T22:16:22.042Z,5.45
2023-09-28T22:18:50.280Z,5.57
2023-09-28T22:21:21.582Z,5.90
2023-09-28T22:23:51.575Z,5.78
2023-09-28T22:26:19.948Z,5.13
2023-09-28T22:28:48.210Z,5.78
2023-09-28T22:31:17.825Z,6.25
2023-09-28T22:33:46.152Z,5.57
2023-09-28T22:36:14.417Z,5.90
2023-09-28T22:38:42.685Z,5.43
2023-09-28T22:41:15.045Z,5.55
2023-09-28T22:43:43.288Z,5.30
2023-09-28T22:46:11.656Z,6.18
2023-09-28T22:48:41.278Z,5.60
2023-09-28T22:51:09.532Z,5.90
2023-09-28T22:53:37.676Z,5.80
2023-09-28T22:56:07.182Z,5.88
2023-09-28T22:58:35.378Z,6.25
2023-09-28T23:01:04.138Z,6.22
2023-09-28T23:03:33.187Z,6.25
2023-09-28T23:06:06.064Z,5.65
2023-09-28T23:08:34.336Z,6.05
2023-09-28T23:11:02.520Z,6.90
2023-09-28T23:13:35.530Z,5.53
2023-09-28T23:16:06.602Z,6.10
2023-09-28T23:18:36.421Z,6.05
2023-09-28T23:21:07.257Z,6.13
2023-09-28T23:23:36.057Z,6.32
2023-09-28T23:26:06.936Z,6.10
2023-09-28T23:28:35.628Z,5.50
2023-09-28T23:31:03.939Z,5.72
2023-09-28T23:33:32.878Z,6.07
2023-09-28T23:36:02.390Z,6.68
2023-09-28T23:38:32.044Z,6.40
2023-09-28T23:41:01.289Z,5.97
2023-09-28T23:43:29.504Z,6.65
2023-09-28T23:45:57.778Z,6.25
2023-09-28T23:48:26.253Z,6.32
2023-09-28T23:50:54.510Z,6.53
2023-09-28T23:53:22.794Z,6.63
2023-09-28T23:55:52.429Z,6.95
2023-09-28T23:58:21.098Z,6.68
